Low Head, Tasmania

2:14 PM AEST on July 24, 2016 (GMT +1000)
George Town Central | | Change Station

Elev 23 ft 41.10 °S, 146.82 °E | Updated 41 seconds ago

Overcast
Overcast
50.4 °F
Feels Like 50.4 °F
N
4.0
Wind Variable Wind from NW
Gusts 4.9 mph

Today
High -- | Low -- °F
--% Chance of Precip.
Yesterday
High -- | Low -- °F
Precip. -- in
Pressure 29.62 in
Visibility 6.2 miles
Clouds Mostly Cloudy 2900 ft
Overcast 3800 ft
Dew Point 46 °F
Humidity 85%
Rainfall 0.00 in
Snow Depth Not available.
7:27 AM 5:11 PM
Waning Gibbous, 80% visible
METAR YMLT 240400Z AUTO 31008KT 9999 // BKN029 OVC038 08/02 Q1003
Pressure 29.62 in
Visibility 6.2 miles
Clouds Mostly Cloudy 2900 ft
Overcast 3800 ft
Dew Point 46 °F
Humidity 85%
Rainfall 0.00 in
Snow Depth Not available.
7:27 AM 5:11 PM
Waning Gibbous, 80% visible
METAR YMLT 240400Z AUTO 31008KT 9999 // BKN029 OVC038 08/02 Q1003

10-Day Weather Forecast

Almanac

Astronomy

Jul. 24, 2016 Rise Set
Actual Time
Civil Twilight
Nautical Twilight
Astronomical Twilight
Moon
Length of Visible Light
Length of Day
Tomorrow will be .
, % of the Moon is Illuminated

Today's Extremes

Country Highs Country Lows

Community

WunderPhotos

Upload Photos

1,927,026 photos uploaded!

WunderBlog® & News

Nearby

Air Quality

  Air Quality AQ Index Pollutant
Not available.

Snow Depth

Station Depth Elevation

Earthquake Activity

City Distance Mag. Time & Date
Minimum magnitude displayed is 2.5.

Coastal Water Temperatures

Place Temperature

Stations

Nearby Weather Stations

Station Location Temp. Windchill Dew Point Humidity Wind Precip. Elev Updated Type